KSTE

Stevens Point Municipal Airport

Stevens Point, Wisconsin, USA
METAR KSTE 182215Z AUTO 06010KT 10SM BKN022 OVC028 22/19 A2998 RMK AO2 T02230189
Observed Flight Rules
Jun-18 @ 22:15 UTC (34 minutes ago) Marginal Visual Flight Rules
Wind Visibility Clouds
60° at 10 knots 10 miles
  • Broken at 2,200' AGL
  • Overcast at 2,800' AGL
Temperatures Readings
Current 22°C / 72°F
Dewpoint 19°C / 66°F
Humidity 83%
Altimeter 29.98" Hg
Pressure 1015 hPa
Elevation 338
METAR KSTE 182215Z AUTO 06010KT 10SM BKN022 OVC028 22/19 A2998 RMK AO2 T02230189
Observed Flight Rules
Jun-18 @ 22:15 UTC
(34 minutes ago)
MVFR
Wind Visibility
60° at 10 knots 10 miles
Clouds
  • Broken at 2,200' AGL
  • Overcast at 2,800' AGL
Temperature Dewpoint
22°C / 72°F 19°C / 66°F
Humidity Altimeter Pressure
83% 29.98" Hg 1015 hPa